This is the latest recevied weather packets stored in our database for station/object 9M4RBN-3. If no packets are shown the sender has not sent any weather packets the latest 10 day(s).
| Time | Temp. | Humidity | Pressure | Rain* | Wind** | Luminosity | Snow |
|---|---|---|---|---|---|---|---|
| 1787592838 | 27.78° C | 69% | 1017.7 hPa | - | - | - | - |
| 1787591938 | 27.78° C | 69% | 1018 hPa | - | - | - | - |
| 1787591038 | 27.78° C | 68% | 1018.2 hPa | - | - | - | - |
| 1787590138 | 27.22° C | 66% | 1018.3 hPa | - | - | - | - |
| 1787589238 | 26.67° C | 62% | 1018.3 hPa | - | - | - | - |
| 1787588338 | 26.11° C | 56% | 1018.3 hPa | - | - | - | - |
| 1787587438 | 25.56° C | 47% | 1018.4 hPa | - | - | - | - |
| 1787586538 | 25.56° C | 47% | 1018.1 hPa | - | - | - | - |
| 1787585640 | 25.56° C | 47% | 1018.2 hPa | - | - | - | - |
| 1787584739 | 25.56° C | 47% | 1018.2 hPa | - | - | - | - |
| 1787583839 | 25.56° C | 47% | 1017.9 hPa | - | - | - | - |
| 1787582939 | 26.11° C | 47% | 1017.8 hPa | - | - | - | - |
| 1787582039 | 26.11° C | 48% | 1017.5 hPa | - | - | - | - |
| 1787581139 | 26.11° C | 47% | 1017.4 hPa | - | - | - | - |
| 1787580239 | 26.11° C | 47% | 1017.3 hPa | - | - | - | - |
| 1787579339 | 26.11° C | 48% | 1017 hPa | - | - | - | - |
| 1787578475 | 26.67° C | 48% | 1016.8 hPa | - | - | - | - |
| 1787578439 | 26.67° C | 48% | 1016.8 hPa | - | - | - | - |
| 1787577539 | 26.67° C | 47% | 1016.7 hPa | - | - | - | - |
| 1787576639 | 26.67° C | 47% | 1016.6 hPa | - | - | - | - |
| 1787575739 | 26.67° C | 46% | 1016.3 hPa | - | - | - | - |
| 1787574839 | 26.67° C | 46% | 1016.3 hPa | - | - | - | - |
| 1787573939 | 26.67° C | 47% | 1016.2 hPa | - | - | - | - |
| 1787573039 | 26.67° C | 45% | 1016 hPa | - | - | - | - |
| 1787572139 | 26.67° C | 45% | 1016 hPa | - | - | - | - |
* Rain since midnight (hover to see other rain measurements)
** Current wind speed in m/s (hover to see current wind gust speed)